LIML/LIN METAR and TAF weather

Enter ICAO airport designator
Station Type Date Time Source
LIML METAR 2021/05/15 22:20 UTC NOAA

LIML 152220Z 34003KT 310V010 9999 SCT035 BKN060 14/11 Q1008 NOSIG


Station Type Date Time Source
LIML Decoded METAR 2021/05/15 22:20 UTC NOAA

Milano / Linate, Italy (LIML) 45-26N 009-17E 103M
May 15, 2021 - 06:20 PM EDT / 2021.05.15 2220 UTC
Wind: from the NNW (340 degrees) at 3 MPH (3 KT) (direction variable):0
Visibility: greater than 7 mile(s):0
Sky conditions: mostly cloudy
Temperature: 57 F (14 C)
Dew Point: 51 F (11 C)
Relative Humidity: 82%
Pressure (altimeter): 29.77 in. Hg (1008 hPa)
ob: LIML 152220Z 34003KT 310V010 9999 SCT035 BKN060 14/11 Q1008 NOSIG
cycle: 22

Station Type Date Time Source
LIML TAF 2021/05/15 18:21 UTC NOAA

TAF LIML 151700Z 1518/1618 VRB05KT 9999 SCT030
TEMPO 1518/1520 RA
TEMPO 1602/1606 4000 BR

Example: see airport list